Time;durP1;ratioP1;P1;durP2;ratioP2;P2;SDS_P1;SDS_P2;PMS_P1;PMS_P2;Temp;Humidity;BMP_temperature;BMP_pressure;BME280_temperature;BME280_humidity;BME280_pressure;Samples;Min_cycle;Max_cycle;Signal;HPM_P1;HPM_P2
2022/09/07 00:03:56;;;;;;;12.45;8.50;;;17.30;99.90;;;15.88;91.12;100297.72;10340050;28;96697;-89
2022/09/07 00:09:02;;;;;;;9.50;8.50;;;17.30;99.90;;;15.85;91.35;100292.78;10363197;28;96593;-88
2022/09/07 00:14:06;;;;;;;9.27;8.30;;;17.30;99.90;;;15.79;91.46;100294.41;10341608;28;96565;-88
2022/09/07 00:19:09;;;;;;;8.60;7.80;;;17.30;99.90;;;15.77;91.59;100286.56;10335644;28;97380;-88
2022/09/07 00:24:12;;;;;;;8.98;8.10;;;17.30;99.90;;;15.73;91.85;100290.66;10354331;28;96883;-88
2022/09/07 00:29:15;;;;;;;9.68;8.70;;;17.20;99.90;;;15.66;91.53;100284.47;10341151;28;96517;-88
2022/09/07 00:34:18;;;;;;;12.30;8.10;;;17.10;99.90;;;15.62;91.80;100280.50;10352649;28;97850;-88
2022/09/07 00:39:21;;;;;;;11.75;8.80;;;17.10;99.90;;;15.56;92.04;100270.56;10368110;28;98023;-87
2022/09/07 00:44:42;;;;;;;8.80;7.93;;;17.10;99.90;;;15.54;92.04;100277.97;10355922;28;96617;-89
2022/09/07 00:49:53;;;;;;;8.68;7.88;;;17.00;99.90;;;15.48;92.00;100273.41;10382336;28;98580;-88
2022/09/07 00:55:01;;;;;;;;;;;17.00;99.90;;;15.43;92.47;100283.88;10357956;28;98265;-88
2022/09/07 01:00:06;;;;;;;9.77;8.77;;;16.80;99.90;;;15.39;92.60;100272.72;10335783;28;96781;-87
2022/09/07 01:05:34;;;;;;;10.55;9.55;;;16.90;99.90;;;15.43;93.04;100262.47;10367020;28;98668;-89
2022/09/07 01:10:38;;;;;;;9.32;8.23;;;16.90;99.90;;;15.45;93.28;100260.41;10339677;28;96596;-88
2022/09/07 01:16:08;;;;;;;9.60;8.70;;;16.90;99.90;;;15.46;93.28;100262.06;10336393;28;97156;-89
2022/09/07 01:21:20;;;;;;;8.70;7.80;;;16.90;99.90;;;15.40;93.17;100263.66;10354562;28;96634;-89
2022/09/07 01:27:07;;;;;;;10.70;9.60;;;16.80;99.90;;;15.33;93.40;100262.00;10355285;28;96668;-89
2022/09/07 01:32:25;;;;;;;10.88;9.85;;;16.80;99.90;;;15.33;93.44;100264.66;10344411;28;99023;-89
2022/09/07 01:37:49;;;;;;;9.82;8.88;;;16.70;99.90;;;15.29;93.51;100258.03;10350630;28;97765;-89
2022/09/07 01:43:15;;;;;;;9.68;8.68;;;16.70;99.90;;;15.23;93.41;100262.34;10325335;28;97086;-88
2022/09/07 01:48:20;;;;;;;11.20;10.00;;;16.70;99.90;;;15.19;93.65;100253.06;10352044;28;96683;-89
2022/09/07 01:53:49;;;;;;;10.95;9.85;;;16.70;99.90;;;15.17;93.77;100253.25;10335908;28;96868;-88
2022/09/07 01:59:06;;;;;;;10.60;9.50;;;16.60;99.90;;;15.12;93.69;100239.63;10308988;28;96537;-89
2022/09/07 02:04:19;;;;;;;10.10;9.10;;;16.60;99.90;;;15.11;93.67;100248.66;10369330;28;96888;-90
2022/09/07 02:09:33;;;;;;;12.13;10.57;;;16.60;99.90;;;15.06;93.79;100239.59;10353894;28;96721;-89
2022/09/07 02:14:42;;;;;;;11.13;9.93;;;16.50;99.90;;;15.02;93.72;100243.69;10354327;28;96618;-90
2022/09/07 02:20:02;;;;;;;11.25;10.10;;;16.50;99.90;;;14.98;93.71;100243.22;10351784;28;96687;-89
2022/09/07 02:25:08;;;;;;;11.52;10.32;;;16.50;99.90;;;14.96;93.57;100242.59;10354795;28;96599;-90
2022/09/07 02:30:12;;;;;;;15.23;10.35;;;16.40;99.90;;;14.92;93.74;100235.97;10349734;28;97578;-90
2022/09/07 02:35:15;;;;;;;13.20;10.82;;;16.40;99.90;;;14.87;93.88;100233.06;10350974;28;98128;-90
2022/09/07 02:40:18;;;;;;;11.45;10.15;;;16.40;99.90;;;14.78;94.01;100221.69;10337463;28;96674;-89
2022/09/07 02:45:22;;;;;;;12.43;11.10;;;16.30;99.90;;;14.81;93.92;100225.81;10335007;28;96762;-89
2022/09/07 02:50:43;;;;;;;12.98;11.75;;;16.30;99.90;;;14.72;93.98;100217.94;10335989;28;96603;-89
2022/09/07 02:56:32;;;;;;;10.82;9.73;;;16.30;99.90;;;14.75;94.22;100223.91;10353567;28;96532;-89
2022/09/07 03:02:03;;;;;;;12.48;11.18;;;16.20;99.90;;;14.72;94.19;100222.47;10342835;28;96682;-89
2022/09/07 03:07:54;;;;;;;13.25;11.93;;;16.20;99.90;;;14.71;94.30;100220.81;10357601;28;97763;-90
2022/09/07 03:12:57;;;;;;;11.13;10.02;;;16.20;99.90;;;14.65;94.40;100221.59;10357933;28;97721;-89
2022/09/07 03:17:59;;;;;;;12.07;10.63;;;16.20;99.90;;;14.61;94.53;100220.31;10341826;28;96787;-89
2022/09/07 03:23:03;;;;;;;14.07;12.48;;;16.10;99.90;;;14.62;94.59;100217.44;10373807;28;96768;-89
2022/09/07 03:28:06;;;;;;;11.77;10.55;;;16.10;99.90;;;14.58;94.67;100216.19;10343140;28;96574;-89
2022/09/07 03:33:10;;;;;;;13.02;11.25;;;16.10;99.90;;;14.57;94.63;100214.53;10353304;28;96749;-89
2022/09/07 03:38:13;;;;;;;12.85;11.55;;;16.10;99.90;;;14.56;94.76;100223.56;10359423;28;97574;-89
2022/09/07 03:43:16;;;;;;;12.60;11.30;;;16.00;99.90;;;14.55;94.81;100221.91;10339914;28;96537;-89
2022/09/07 03:48:19;;;;;;;14.50;12.65;;;16.10;99.90;;;14.52;94.91;100221.50;10325503;28;96720;-88
2022/09/07 03:53:22;;;;;;;15.20;13.32;;;16.00;99.90;;;14.51;95.03;100226.00;10322360;28;98463;-89
2022/09/07 03:58:27;;;;;;;13.52;12.05;;;16.10;99.90;;;14.59;95.31;100227.72;10359208;28;96539;-89
2022/09/07 04:03:31;;;;;;;12.88;11.48;;;16.10;99.90;;;14.62;95.38;100243.38;10336872;28;96787;-89
2022/09/07 04:08:36;;;;;;;17.40;13.18;;;16.10;99.90;;;14.68;95.66;100235.41;10342039;28;96593;-89
2022/09/07 04:13:40;;;;;;;15.20;13.57;;;16.20;99.90;;;14.79;96.01;100235.91;10354988;28;96980;-89
2022/09/07 04:18:43;;;;;;;18.20;13.65;;;16.30;99.90;;;14.91;96.26;100245.03;10337678;28;98681;-89
2022/09/07 04:23:47;;;;;;;13.00;11.52;;;16.40;99.90;;;14.98;96.29;100246.72;10356811;28;97460;-89
2022/09/07 04:28:51;;;;;;;16.10;13.80;;;16.50;99.90;;;15.09;96.26;100244.53;10341262;28;98537;-89
2022/09/07 04:33:55;;;;;;;14.82;10.52;;;16.60;99.90;;;15.14;96.16;100253.66;10337422;28;96643;-90
2022/09/07 04:39:01;;;;;;;13.35;10.30;;;16.70;99.90;;;15.12;96.05;100249.53;10353449;28;97600;-90
2022/09/07 04:44:04;;;;;;;12.25;10.60;;;16.60;99.90;;;15.15;96.28;100254.47;10353146;28;96589;-90
2022/09/07 04:49:10;;;;;;;12.70;11.25;;;16.70;99.90;;;15.16;96.05;100250.75;10329526;28;96927;-90
2022/09/07 04:54:13;;;;;;;14.32;12.73;;;16.60;99.90;;;15.21;96.33;100256.34;10353075;28;98506;-89
2022/09/07 04:59:16;;;;;;;19.80;13.98;;;16.70;99.90;;;15.30;96.33;100259.72;10353640;28;97175;-88
2022/09/07 05:04:19;;;;;;;15.15;11.32;;;16.80;99.90;;;15.38;96.36;100254.19;10368447;28;96769;-89
2022/09/07 05:09:22;;;;;;;15.23;12.10;;;16.90;99.90;;;15.52;96.42;100261.25;10355593;28;97331;-90
2022/09/07 05:14:25;;;;;;;14.48;12.00;;;17.00;99.90;;;15.62;96.47;100256.41;10368436;28;97330;-91
2022/09/07 05:19:28;;;;;;;10.02;8.90;;;17.10;99.90;;;15.79;96.50;100262.25;10330596;28;97148;-90
2022/09/07 05:24:35;;;;;;;9.88;8.65;;;17.20;99.90;;;15.96;96.38;100270.78;10325354;28;98818;-90
2022/09/07 05:29:38;;;;;;;12.07;8.95;;;17.40;99.90;;;16.15;96.47;100277.22;10353880;28;98184;-90
2022/09/07 05:35:01;;;;;;;8.93;7.38;;;17.60;99.90;;;16.31;96.23;100266.09;10343472;28;96673;-90
2022/09/07 05:40:04;;;;;;;8.98;8.07;;;17.80;99.90;;;16.47;95.95;100273.75;10351727;28;98493;-91
2022/09/07 05:45:09;;;;;;;8.05;7.22;;;18.00;99.90;;;16.63;95.53;100271.72;10340241;28;96714;-90
2022/09/07 05:50:12;;;;;;;10.05;7.60;;;18.10;99.90;;;16.80;95.20;100278.38;10341462;28;96742;-90
2022/09/07 05:55:15;;;;;;;81.28;25.42;;;18.30;99.90;;;16.97;94.68;100270.72;10355391;28;96627;-90
2022/09/07 06:00:32;;;;;;;18.05;9.18;;;18.50;99.90;;;17.08;94.17;100275.44;10341900;28;96578;-90
2022/09/07 06:05:35;;;;;;;11.13;7.78;;;18.60;99.90;;;17.22;93.20;100281.66;10373022;28;96574;-90
2022/09/07 06:10:38;;;;;;;8.95;8.10;;;18.70;99.90;;;17.30;92.38;100282.25;10350950;28;98388;-90
2022/09/07 06:15:42;;;;;;;9.68;7.45;;;18.80;99.90;;;17.40;91.82;100273.75;10349056;28;98856;-90
2022/09/07 06:20:45;;;;;;;8.05;5.90;;;18.90;99.90;;;17.56;89.92;100272.47;10347660;28;97437;-88
2022/09/07 06:25:48;;;;;;;8.05;6.05;;;19.10;99.90;;;17.67;88.71;100266.44;10374259;28;96688;-88
2022/09/07 06:30:51;;;;;;;5.75;5.18;;;19.20;99.90;;;17.81;87.36;100270.75;10340604;28;96791;-88
2022/09/07 06:36:02;;;;;;;5.82;5.28;;;19.30;99.90;;;17.94;86.49;100269.06;10361845;28;98103;-87
2022/09/07 06:41:21;;;;;;;7.35;6.15;;;19.40;99.90;;;18.11;86.34;100275.56;10339821;28;96807;-87
2022/09/07 06:46:44;;;;;;;6.82;5.90;;;19.60;99.90;;;18.26;84.17;100272.59;10358056;28;98551;-87
2022/09/07 06:52:03;;;;;;;6.20;5.07;;;19.70;99.90;;;18.40;82.32;100261.50;10345934;28;96829;-87
2022/09/07 06:57:07;;;;;;;6.50;5.30;;;19.90;99.90;;;18.55;80.00;100258.53;10351651;28;98793;-87
2022/09/07 07:02:13;;;;;;;6.30;5.57;;;20.00;99.90;;;18.65;77.64;100263.41;10347333;28;98615;-86
2022/09/07 07:07:16;;;;;;;8.50;6.28;;;20.20;99.90;;;18.79;77.54;100258.78;10351770;28;97915;-87
2022/09/07 07:12:19;;;;;;;7.15;5.68;;;20.30;99.90;;;18.95;76.96;100264.44;10367781;28;96586;-88
2022/09/07 07:17:21;;;;;;;6.60;5.30;;;20.50;99.90;;;19.12;76.75;100263.84;10387625;28;96681;-88
2022/09/07 07:22:24;;;;;;;6.43;4.78;;;20.60;99.90;;;19.26;75.83;100251.91;10367303;28;96733;-88
2022/09/07 07:27:48;;;;;;;6.90;5.88;;;20.80;99.90;;;19.39;74.43;100254.47;10341553;28;96628;-87
2022/09/07 07:32:51;;;;;;;6.55;5.35;;;20.90;99.90;;;19.55;74.46;100257.59;10355855;28;96753;-87
2022/09/07 07:37:54;;;;;;;6.60;5.47;;;21.10;99.90;;;19.73;74.39;100257.63;10337062;28;96632;-88
2022/09/07 07:43:17;;;;;;;5.50;4.65;;;21.30;99.90;;;20.14;73.96;100256.03;10362227;28;96497;-87
2022/09/07 07:48:20;;;;;;;5.95;5.40;;;21.80;99.90;;;21.01;71.29;100256.38;10378674;28;96545;-88
2022/09/07 07:53:24;;;;;;;8.45;5.05;;;22.40;99.90;;;21.42;68.58;100244.63;10375506;28;96846;-86
2022/09/07 07:58:46;;;;;;;6.15;5.50;;;22.70;99.90;;;21.47;66.92;100250.13;10375149;28;96876;-85
2022/09/07 08:03:49;;;;;;;7.93;5.05;;;22.90;99.60;;;21.41;67.16;100242.97;10357878;28;96748;-85
2022/09/07 08:08:54;;;;;;;7.05;5.25;;;22.90;98.70;;;21.29;65.64;100243.00;10358389;28;96687;-86
2022/09/07 08:13:59;;;;;;;6.13;5.20;;;22.80;98.00;;;21.30;67.37;100246.53;10325319;28;96662;-85
2022/09/07 08:19:02;;;;;;;6.70;5.00;;;22.80;98.30;;;21.39;66.69;100236.97;10327261;28;96565;-86
2022/09/07 08:24:05;;;;;;;8.98;5.05;;;22.90;98.00;;;21.45;66.17;100249.53;10375497;28;96970;-86
2022/09/07 08:29:07;;;;;;;5.82;5.20;;;23.00;97.60;;;21.50;65.76;100236.13;10358832;28;96582;-86
2022/09/07 08:34:10;;;;;;;8.25;5.55;;;23.10;97.40;;;21.58;65.73;100230.34;10357360;28;96768;-87
2022/09/07 08:39:13;;;;;;;5.78;4.90;;;23.20;97.10;;;21.77;66.75;100225.59;10352508;28;96972;-87
2022/09/07 08:44:48;;;;;;;5.20;4.70;;;23.30;97.40;;;21.93;65.25;100221.28;10332987;28;98431;-86
2022/09/07 08:50:01;;;;;;;6.82;4.20;;;23.50;96.90;;;22.10;65.25;100221.38;10350539;28;97752;-85
2022/09/07 08:55:19;;;;;;;9.50;5.18;;;23.60;96.70;;;22.25;63.77;100215.38;10355646;28;97209;-87
2022/09/07 09:00:22;;;;;;;9.85;4.80;;;23.80;96.00;;;22.37;63.29;100203.44;10353803;28;98189;-87
2022/09/07 09:05:35;;;;;;;7.75;5.28;;;23.90;95.60;;;22.52;62.75;100197.44;10324177;28;100377;-86
2022/09/07 09:10:56;;;;;;;6.47;4.22;;;24.10;95.30;;;22.67;62.20;100195.00;10365852;28;96575;-86
2022/09/07 09:16:31;;;;;;;6.00;4.43;;;24.20;95.10;;;22.84;61.99;100200.38;10342884;28;98305;-87
2022/09/07 09:21:34;;;;;;;6.03;4.90;;;24.40;94.50;;;23.00;61.45;100197.94;10363869;28;96737;-87
2022/09/07 09:26:41;;;;;;;6.00;4.95;;;24.50;93.70;;;23.08;60.75;100201.00;10336437;28;96623;-86
2022/09/07 09:31:46;;;;;;;5.18;3.75;;;24.60;93.50;;;23.33;61.21;100202.41;10346159;28;97203;-87
2022/09/07 09:36:53;;;;;;;5.82;4.05;;;24.80;93.60;;;23.63;59.59;100204.72;10359650;28;96718;-88
2022/09/07 09:42:19;;;;;;;4.72;4.32;;;25.10;93.00;;;23.72;58.87;100190.47;10356423;28;96549;-88
2022/09/07 09:47:32;;;;;;;6.93;4.05;;;25.20;92.10;;;23.85;59.13;100183.81;10306735;28;96690;-88
2022/09/07 09:52:36;;;;;;;6.47;3.95;;;25.30;92.30;;;24.01;57.66;100180.19;10347079;28;96629;-87
2022/09/07 09:58:00;;;;;;;7.78;4.22;;;25.50;91.70;;;24.14;57.63;100164.53;10342172;28;96588;-88
2022/09/07 10:03:25;;;;;;;7.18;4.32;;;25.70;91.30;;;24.40;57.45;100168.31;10292488;28;96721;-88
2022/09/07 10:08:57;;;;;;;6.47;4.03;;;26.00;90.70;;;24.79;56.05;100163.44;10330159;28;97903;-88
2022/09/07 10:14:00;;;;;;;5.20;3.92;;;26.30;90.40;;;25.04;55.60;100168.19;10328434;28;98432;-88
2022/09/07 10:19:03;;;;;;;5.55;3.97;;;26.60;90.10;;;25.32;54.84;100151.50;10313394;28;97845;-88
2022/09/07 10:24:06;;;;;;;8.10;4.00;;;26.90;88.60;;;25.36;53.52;100152.59;10313567;28;96551;-88
2022/09/07 10:29:21;;;;;;;4.85;4.35;;;27.00;86.50;;;25.42;52.83;100147.97;10330455;28;96735;-87
2022/09/07 10:34:42;;;;;;;4.68;3.90;;;27.00;85.00;;;25.68;52.02;100148.88;10329055;28;97463;-88
2022/09/07 10:40:04;;;;;;;5.72;3.50;;;27.20;83.00;;;25.96;52.62;100135.88;10311281;28;96656;-88
2022/09/07 10:46:02;;;;;;;5.55;4.10;;;27.40;82.90;;;26.19;50.27;100135.34;10329398;28;96432;-87
2022/09/07 10:51:16;;;;;;;4.85;4.18;;;27.70;80.90;;;26.49;51.20;100133.72;10325971;28;96825;-88
2022/09/07 10:56:32;;;;;;;5.88;4.28;;;28.10;80.00;;;26.97;49.78;100131.44;10287683;28;96479;-87
2022/09/07 11:01:52;;;;;;;3.60;2.80;;;28.80;78.50;;;27.70;49.53;100120.75;10302528;28;96477;-87
2022/09/07 11:07:57;;;;;;;3.95;3.30;;;29.60;77.60;;;28.58;46.51;100124.44;10345781;28;96851;-87
2022/09/07 11:13:04;;;;;;;4.15;3.05;;;30.50;75.60;;;29.10;45.55;100107.19;10209434;28;96735;-87
2022/09/07 11:18:13;;;;;;;5.00;3.50;;;31.30;71.50;;;29.82;44.65;100101.53;10311213;28;98186;-87
2022/09/07 11:23:45;;;;;;;4.72;2.85;;;31.70;70.00;;;30.44;41.39;100091.16;10302455;28;96545;-88
2022/09/07 11:29:11;;;;;;;3.35;3.05;;;32.00;67.70;;;30.57;39.98;100081.34;10299316;28;96487;-87
2022/09/07 11:34:43;;;;;;;5.18;3.60;;;32.10;64.70;;;30.44;39.67;100085.69;10342568;28;97075;-89
2022/09/07 11:39:56;;;;;;;5.15;3.03;;;31.90;62.90;;;30.41;40.20;100067.13;10360312;28;96775;-87
2022/09/07 11:45:30;;;;;;;4.95;3.40;;;31.70;62.40;;;30.02;39.89;100073.78;10359922;28;96842;-89
2022/09/07 11:50:38;;;;;;;5.55;4.50;;;31.60;61.40;;;29.77;40.65;100068.75;10342766;28;96751;-88
2022/09/07 11:55:45;;;;;;;4.47;4.07;;;31.30;61.90;;;29.66;40.67;100061.81;10359259;28;96596;-89
2022/09/07 12:01:15;;;;;;;5.37;4.73;;;31.30;61.50;;;29.56;41.60;100052.63;10356085;28;97416;-91
2022/09/07 12:06:25;;;;;;;4.70;4.13;;;31.20;62.10;;;29.63;40.66;100056.91;10347930;28;98881;-92
2022/09/07 12:12:13;;;;;;;5.82;4.55;;;31.20;62.10;;;29.48;41.14;100056.00;10376567;28;96560;-92
2022/09/07 12:17:25;;;;;;;9.27;5.55;;;31.10;61.60;;;29.33;41.36;100053.53;10335846;28;96918;-90
2022/09/07 12:22:28;;;;;;;8.48;5.25;;;31.00;61.40;;;29.13;40.62;100042.84;10355806;28;97550;-90
2022/09/07 12:27:31;;;;;;;8.07;5.45;;;30.90;60.50;;;28.79;41.43;100041.09;10350710;28;96773;-91
2022/09/07 12:32:46;;;;;;;8.00;5.50;;;30.60;61.00;;;28.55;41.85;100041.09;10351048;28;97596;-91
2022/09/07 12:38:17;;;;;;;7.75;6.00;;;30.20;60.70;;;28.68;42.48;100036.84;10352901;28;96740;-91
2022/09/07 12:43:20;;;;;;;6.15;5.55;;;30.20;62.70;;;28.84;41.87;100041.00;10352838;28;98595;-91
2022/09/07 12:48:50;;;;;;;7.22;6.53;;;30.20;62.40;;;29.05;41.36;100034.19;10361679;28;99267;-89
2022/09/07 12:54:34;;;;;;;8.05;6.28;;;30.40;61.80;;;29.25;41.18;100019.41;10325941;28;96867;-91
2022/09/07 13:00:10;;;;;;;6.68;6.07;;;30.60;61.40;;;29.11;40.46;100006.75;10358479;28;96720;-92
2022/09/07 13:05:39;;;;;;;7.22;6.50;;;30.60;60.70;;;28.93;40.33;100011.94;10374875;28;96586;-91
2022/09/07 13:10:43;;;;;;;7.55;6.88;;;30.40;60.10;;;28.69;40.77;100005.66;10316342;28;96859;-90
2022/09/07 13:16:03;;;;;;;7.95;7.15;;;30.10;60.00;;;28.50;40.92;99998.22;10333268;28;97433;-90
2022/09/07 13:21:06;;;;;;;9.02;8.13;;;30.00;60.30;;;28.24;41.64;100008.56;10339317;28;96681;-89
2022/09/07 13:26:53;;;;;;;9.00;8.20;;;29.70;60.80;;;28.07;42.51;99993.75;10353944;28;96562;-89
2022/09/07 13:32:16;;;;;;;10.40;9.30;;;29.50;61.70;;;27.90;42.31;99989.56;10370869;28;96651;-89
2022/09/07 13:37:23;;;;;;;11.02;10.02;;;29.30;61.40;;;27.73;42.58;100002.81;10352634;28;96662;-88
2022/09/07 13:42:32;;;;;;;10.95;9.95;;;29.20;61.70;;;27.56;44.31;99994.19;10356772;28;96734;-89
2022/09/07 13:48:00;;;;;;;11.00;9.90;;;29.00;63.40;;;27.50;44.04;99990.69;10348847;28;97536;-89
2022/09/07 13:53:43;;;;;;;11.38;9.02;;;29.00;63.30;;;27.64;43.85;99979.91;10350283;28;97446;-89
2022/09/07 13:58:50;;;;;;;10.95;9.90;;;29.00;63.00;;;27.81;43.39;99969.41;10365708;28;96503;-89
2022/09/07 14:04:08;;;;;;;11.38;10.43;;;29.20;62.70;;;27.94;43.79;99963.28;10335041;28;97692;-90
2022/09/07 14:09:20;;;;;;;11.13;10.18;;;29.20;63.00;;;27.97;43.66;99973.63;10338279;28;96558;-90
2022/09/07 14:14:31;;;;;;;11.57;10.48;;;29.30;62.80;;;27.90;42.66;99962.25;10334217;28;97519;-91
2022/09/07 14:19:40;;;;;;;10.80;9.70;;;29.30;62.10;;;27.91;43.06;99963.88;10348861;28;97197;-90
2022/09/07 14:25:00;;;;;;;12.10;11.00;;;29.30;62.20;;;27.78;43.41;99964.53;10367991;28;97180;-90
2022/09/07 14:30:22;;;;;;;10.38;9.48;;;29.30;62.50;;;27.69;43.83;99977.16;10332088;28;97271;-91
2022/09/07 14:35:32;;;;;;;10.20;9.20;;;29.20;62.80;;;27.77;43.91;99971.13;10354261;28;96601;-90
2022/09/07 14:40:35;;;;;;;9.45;8.65;;;29.20;63.00;;;27.86;43.67;99963.91;10351551;28;96963;-90
2022/09/07 14:45:38;;;;;;;9.40;8.50;;;29.30;62.60;;;28.10;43.37;99953.00;10338615;28;96834;-90
2022/09/07 14:50:48;;;;;;;9.32;8.30;;;29.50;62.60;;;28.24;42.38;99953.13;10356650;28;96663;-90
2022/09/07 14:56:34;;;;;;;8.50;7.68;;;29.60;61.70;;;28.25;42.54;99947.38;10336397;28;96857;-90
2022/09/07 15:01:37;;;;;;;8.75;7.72;;;29.70;61.60;;;28.42;42.14;99952.38;10330343;28;96582;-91
2022/09/07 15:06:42;;;;;;;8.90;8.00;;;29.90;61.10;;;28.68;42.63;99952.09;10334970;28;98334;-90
2022/09/07 15:12:08;;;;;;;9.02;6.72;;;30.20;61.40;;;28.87;40.96;99947.44;10355187;28;96761;-90
2022/09/07 15:17:24;;;;;;;8.88;7.78;;;30.50;59.90;;;28.95;41.16;99938.59;10359735;28;96623;-90
2022/09/07 15:22:47;;;;;;;8.75;7.65;;;30.50;59.90;;;28.87;41.93;99941.16;10346405;28;96570;-89
2022/09/07 15:27:50;;;;;;;6.70;6.10;;;30.40;60.30;;;28.71;41.70;99943.28;10330135;28;96570;-89
2022/09/07 15:32:54;;;;;;;6.40;5.80;;;30.30;60.40;;;28.77;41.99;99942.09;10340622;28;97491;-90
2022/09/07 15:37:59;;;;;;;5.97;5.47;;;30.20;60.20;;;28.87;41.20;99946.63;10324568;28;96681;-89
2022/09/07 15:43:05;;;;;;;9.57;5.50;;;30.40;59.70;;;29.01;41.81;99950.28;10360735;28;96653;-90
2022/09/07 15:48:26;;;;;;;5.78;5.28;;;30.50;59.60;;;29.04;40.49;99957.91;10347274;28;96803;-89
2022/09/07 15:53:29;;;;;;;5.68;5.18;;;30.70;58.70;;;28.96;40.06;99955.81;10359838;28;96461;-91
2022/09/07 15:58:54;;;;;;;7.07;5.30;;;30.60;58.40;;;28.77;40.48;99962.06;10336940;28;97622;-91
2022/09/07 16:03:57;;;;;;;6.50;5.20;;;30.50;58.70;;;28.40;40.87;99960.06;10346480;28;99300;-90
2022/09/07 16:09:00;;;;;;;6.05;5.43;;;30.00;59.00;;;27.95;41.19;99970.38;10323050;28;98456;-91
2022/09/07 16:14:04;;;;;;;6.30;5.70;;;29.50;59.30;;;27.53;42.23;99979.22;10341650;28;97401;-90
2022/09/07 16:19:11;;;;;;;6.55;5.43;;;29.00;60.20;;;27.16;43.36;99971.53;10353923;28;98870;-93
2022/09/07 16:24:16;;;;;;;6.53;5.93;;;28.70;61.00;;;26.84;43.69;99967.34;10341638;28;96603;-93
2022/09/07 16:29:19;;;;;;;6.50;5.75;;;28.40;61.70;;;26.63;45.16;99960.38;10340183;28;97026;-90
2022/09/07 16:34:22;;;;;;;6.88;6.10;;;28.10;62.80;;;26.38;45.76;99959.34;10355353;28;96879;-91
2022/09/07 16:39:25;;;;;;;7.00;5.18;;;27.80;63.60;;;26.16;47.06;99956.16;10362201;28;96643;-90
2022/09/07 16:44:28;;;;;;;7.60;6.90;;;27.60;64.70;;;25.89;48.11;99948.31;10351742;28;96664;-90
2022/09/07 16:49:31;;;;;;;8.98;6.88;;;27.30;65.60;;;25.65;48.87;99956.22;10352509;28;96551;-89
2022/09/07 16:54:34;;;;;;;7.10;6.50;;;27.10;66.70;;;25.36;49.90;99939.63;10363908;28;96656;-90
2022/09/07 16:59:37;;;;;;;8.60;7.47;;;26.80;67.70;;;25.08;50.95;99935.53;10361982;28;96398;-91
2022/09/07 17:04:40;;;;;;;7.93;6.40;;;26.60;68.40;;;24.84;51.83;99940.63;10308421;28;97065;-91
2022/09/07 17:09:43;;;;;;;9.65;7.45;;;26.30;69.40;;;24.58;53.21;99942.44;10314321;28;96615;-90
2022/09/07 17:14:46;;;;;;;8.82;7.50;;;26.00;70.70;;;24.30;53.81;99936.31;10326588;28;96799;-90
2022/09/07 17:19:49;;;;;;;7.85;7.13;;;25.70;71.10;;;24.00;54.57;99936.19;10332193;28;98272;-90
2022/09/07 17:24:54;;;;;;;9.15;7.72;;;25.40;71.60;;;23.81;54.92;99932.22;10332953;28;98482;-90
2022/09/07 17:29:57;;;;;;;11.27;7.05;;;25.20;72.00;;;23.62;55.31;99945.41;10311638;28;97480;-90
2022/09/07 17:35:00;;;;;;;8.88;7.35;;;25.10;72.30;;;23.42;55.60;99946.03;10302149;28;97731;-90
2022/09/07 17:40:05;;;;;;;7.88;7.10;;;24.90;72.80;;;23.25;56.24;99962.41;10305596;28;97392;-90
2022/09/07 17:45:09;;;;;;;9.07;7.57;;;24.70;73.20;;;23.07;57.02;99966.31;10318028;28;97777;-90
2022/09/07 17:50:13;;;;;;;7.10;6.40;;;24.60;74.20;;;23.00;57.48;99979.25;10340426;28;97815;-89
2022/09/07 17:55:16;;;;;;;8.73;8.02;;;24.40;74.90;;;22.84;58.32;99994.47;10327270;28;96583;-89
2022/09/07 18:00:19;;;;;;;8.68;7.88;;;24.20;75.70;;;22.65;58.77;99980.44;10334613;28;96613;-89
2022/09/07 18:05:21;;;;;;;9.25;8.38;;;24.00;76.20;;;22.51;59.03;99991.91;10362912;28;96933;-89
2022/09/07 18:10:25;;;;;;;9.32;8.43;;;23.90;76.90;;;22.40;59.49;100001.78;10349408;28;96647;-89
2022/09/07 18:15:28;;;;;;;11.07;8.45;;;23.80;77.30;;;22.29;60.25;100013.53;10369313;28;96631;-89
2022/09/07 18:20:33;;;;;;;12.95;8.93;;;23.60;78.30;;;22.20;60.54;100015.88;10336548;28;96973;-89
2022/09/07 18:25:36;;;;;;;10.02;8.80;;;23.60;78.90;;;22.14;60.91;100014.16;10372079;28;96669;-89
2022/09/07 18:30:41;;;;;;;13.70;10.40;;;23.50;79.40;;;22.06;61.37;100017.22;10342080;28;98293;-89
2022/09/07 18:35:46;;;;;;;13.77;10.30;;;23.40;80.10;;;22.02;61.75;100026.94;10352832;28;96643;-89
2022/09/07 18:40:49;;;;;;;10.27;9.15;;;23.40;80.70;;;21.96;62.37;100015.19;10325257;28;97843;-88
2022/09/07 18:45:58;;;;;;;16.83;10.15;;;23.30;81.30;;;21.89;63.25;100011.81;10379573;28;97057;-88
2022/09/07 18:51:02;;;;;;;11.98;10.77;;;23.20;81.90;;;21.83;63.61;100007.41;10361246;28;98645;-88
2022/09/07 18:56:14;;;;;;;11.52;10.43;;;23.10;82.60;;;21.74;64.15;99998.88;10348185;28;98375;-88
2022/09/07 19:01:17;;;;;;;10.07;9.07;;;23.10;83.10;;;21.69;64.54;100000.69;10340228;28;96714;-88
2022/09/07 19:06:23;;;;;;;10.88;9.88;;;23.00;83.80;;;21.61;64.92;100007.31;10344953;28;97508;-87
2022/09/07 19:11:26;;;;;;;11.52;9.98;;;23.00;84.30;;;21.52;65.27;100003.38;10348561;28;97798;-88
2022/09/07 19:16:30;;;;;;;11.75;10.55;;;22.90;84.70;;;21.43;65.51;100000.25;10336912;28;97225;-88
2022/09/07 19:21:38;;;;;;;11.25;10.15;;;22.80;85.20;;;21.35;65.51;100001.50;10337226;28;98221;-88
2022/09/07 19:26:46;;;;;;;11.68;10.57;;;22.70;85.50;;;21.26;65.79;100011.00;10345393;28;97536;-88
2022/09/07 19:32:05;;;;;;;11.60;10.48;;;22.60;85.80;;;21.17;66.06;100007.06;10348794;28;98612;-88
2022/09/07 19:37:11;;;;;;;11.05;10.05;;;22.60;86.40;;;21.13;67.15;100011.31;10339646;28;96806;-89
2022/09/07 19:42:14;;;;;;;11.57;10.57;;;22.50;86.80;;;21.09;67.24;99992.06;10352112;28;97851;-89
2022/09/07 19:47:18;;;;;;;10.35;9.45;;;22.50;87.30;;;21.09;66.93;99994.75;10354303;28;97517;-88
2022/09/07 19:52:21;;;;;;;11.45;10.27;;;22.50;87.70;;;21.03;67.51;99998.41;10332375;28;97415;-88
2022/09/07 19:57:23;;;;;;;11.65;10.65;;;22.50;88.30;;;20.99;67.35;99996.44;10356707;28;98384;-88
2022/09/07 20:02:26;;;;;;;11.75;10.55;;;22.40;88.60;;;20.94;67.70;99993.66;10328425;28;97363;-88
2022/09/07 20:07:29;;;;;;;11.75;10.75;;;22.30;89.10;;;20.84;68.06;99981.59;10330467;28;98512;-88
2022/09/07 20:12:32;;;;;;;13.32;11.38;;;22.20;89.60;;;20.81;68.05;99978.53;10372074;28;97335;-88
2022/09/07 20:17:36;;;;;;;11.55;10.45;;;22.20;90.00;;;20.85;68.28;99994.03;10355817;28;96696;-89
2022/09/07 20:22:39;;;;;;;12.43;11.20;;;22.20;90.10;;;20.84;68.72;99986.16;10371914;28;97277;-89
2022/09/07 20:27:42;;;;;;;11.68;10.13;;;22.30;90.30;;;20.83;69.27;99982.66;10340119;28;98392;-89
2022/09/07 20:32:45;;;;;;;12.52;11.02;;;22.30;90.50;;;20.85;69.37;99985.09;10343059;28;96576;-89
2022/09/07 20:37:48;;;;;;;12.80;11.30;;;22.20;90.60;;;20.83;69.81;99995.34;10338442;28;96894;-89
2022/09/07 20:42:51;;;;;;;11.60;10.45;;;22.20;90.80;;;20.78;69.61;99990.66;10353662;28;96640;-88
2022/09/07 20:47:54;;;;;;;12.65;11.43;;;22.20;91.00;;;20.70;70.01;99990.22;10355725;28;100277;-88
2022/09/07 20:52:56;;;;;;;13.57;12.38;;;22.10;91.40;;;20.57;70.71;99983.19;10353899;28;97550;-88
2022/09/07 20:57:59;;;;;;;13.35;12.05;;;22.00;91.60;;;20.49;70.94;99986.25;10329714;28;96585;-89
2022/09/07 21:03:02;;;;;;;12.70;11.48;;;21.90;91.80;;;20.35;71.34;99988.38;10338183;28;98518;-88
2022/09/07 21:08:05;;;;;;;13.40;12.07;;;21.80;92.40;;;20.30;71.31;99991.78;10340914;28;96636;-88
2022/09/07 21:13:09;;;;;;;14.15;12.18;;;21.70;92.40;;;20.25;71.60;99972.78;10340132;28;98263;-88